Time;durP1;ratioP1;P1;durP2;ratioP2;P2;SDS_P1;SDS_P2;PMS_P1;PMS_P2;Temp;Humidity;BMP_temperature;BMP_pressure;BME280_temperature;BME280_humidity;BME280_pressure;Samples;Min_cycle;Max_cycle;Signal;HPM_P1;HPM_P2
2022/12/17 13:06:10;;;;;;;74.18;29.30;;;-3.80;99.90;;;;;;5071010;28;20654;-64
2022/12/17 13:08:41;;;;;;;58.28;27.33;;;-3.70;99.90;;;;;;5076149;28;20215;-64
2022/12/17 13:11:26;;;;;;;68.63;29.77;;;-3.70;99.90;;;;;;5071540;28;20655;-64
2022/12/17 13:13:59;;;;;;;48.50;24.50;;;-3.60;99.90;;;;;;5072593;28;20212;-64
2022/12/17 13:16:35;;;;;;;57.05;26.75;;;-3.60;99.90;;;;;;5075772;28;20271;-64
2022/12/17 13:19:05;;;;;;;57.30;26.23;;;-3.50;99.90;;;;;;5077784;28;20255;-64
2022/12/17 13:21:34;;;;;;;54.58;27.52;;;-3.50;99.90;;;;;;5069264;28;20275;-64
2022/12/17 13:24:12;;;;;;;55.03;26.42;;;-3.50;99.90;;;;;;5057395;28;20628;-65
2022/12/17 13:26:45;;;;;;;50.00;25.45;;;-3.50;99.90;;;;;;5058162;28;20272;-65
2022/12/17 13:29:23;;;;;;;47.50;26.52;;;-3.50;99.90;;;;;;5058877;28;20397;-65
2022/12/17 13:32:06;;;;;;;56.25;26.52;;;-3.40;99.90;;;;;;5075113;28;20194;-64
2022/12/17 13:35:06;;;;;;;45.67;22.10;;;-3.50;99.90;;;;;;5063636;28;20239;-65
2022/12/17 13:37:43;;;;;;;41.55;21.40;;;-3.60;99.90;;;;;;5066062;28;20196;-65
2022/12/17 13:40:25;;;;;;;53.03;24.58;;;-3.50;99.90;;;;;;5064581;28;20208;-65
2022/12/17 13:42:53;;;;;;;55.10;24.95;;;-3.40;99.90;;;;;;5066710;28;20203;-65
2022/12/17 13:45:25;;;;;;;40.72;22.85;;;-3.30;99.90;;;;;;5072922;28;20559;-65
2022/12/17 13:47:54;;;;;;;46.03;23.38;;;-3.30;99.90;;;;;;5073421;28;20204;-65
2022/12/17 13:50:24;;;;;;;53.00;23.67;;;-3.40;99.90;;;;;;5068976;28;20670;-65
2022/12/17 13:52:52;;;;;;;55.38;26.42;;;-3.40;99.90;;;;;;5061404;28;20200;-66
2022/12/17 13:55:24;;;;;;;54.33;24.50;;;-3.40;99.90;;;;;;5074854;28;20219;-64
2022/12/17 13:57:53;;;;;;;46.15;24.50;;;-3.40;99.90;;;;;;5074341;28;20590;-64
2022/12/17 14:00:23;;;;;;;48.25;22.90;;;-3.30;99.90;;;;;;5057188;28;20231;-65
2022/12/17 14:02:52;;;;;;;50.30;23.55;;;-3.30;99.90;;;;;;5074065;28;20275;-66
2022/12/17 14:05:26;;;;;;;44.92;23.63;;;-3.30;99.90;;;;;;5063676;28;20245;-65
2022/12/17 14:08:00;;;;;;;47.45;24.70;;;-3.40;99.90;;;;;;5064445;28;20200;-65
2022/12/17 14:10:30;;;;;;;54.63;25.35;;;-3.40;99.90;;;;;;5071939;28;20210;-65
2022/12/17 14:13:04;;;;;;;43.05;22.90;;;-3.50;99.90;;;;;;5075033;28;20288;-65
2022/12/17 14:15:33;;;;;;;56.28;25.90;;;-3.60;99.90;;;;;;5065853;28;20244;-65
2022/12/17 14:18:02;;;;;;;53.70;25.05;;;-3.50;99.90;;;;;;5071114;28;20766;-65
2022/12/17 14:20:32;;;;;;;47.72;24.13;;;-3.50;99.90;;;;;;5077407;28;20718;-65
2022/12/17 14:23:03;;;;;;;47.03;24.92;;;-3.50;99.90;;;;;;5064597;28;20217;-64
2022/12/17 14:25:36;;;;;;;69.57;24.92;;;-3.50;99.90;;;;;;5068409;28;20605;-64
2022/12/17 14:28:07;;;;;;;61.15;25.23;;;-3.50;99.90;;;;;;5056470;28;20197;-64
2022/12/17 14:30:38;;;;;;;48.38;24.60;;;-3.40;99.90;;;;;;5076431;28;20587;-64
2022/12/17 14:33:26;;;;;;;41.67;22.38;;;-3.60;99.90;;;;;;5076789;28;20200;-64
2022/12/17 14:35:58;;;;;;;49.88;23.65;;;-3.70;99.90;;;;;;5076840;28;20259;-63
2022/12/17 14:38:27;;;;;;;45.53;22.20;;;-3.70;99.90;;;;;;5076494;28;20202;-64
2022/12/17 14:42:23;;;;;;;52.28;25.27;;;-3.70;99.90;;;;;;5066958;28;20291;-64
2022/12/17 14:43:57;;;;;;;57.13;25.20;;;-3.80;99.90;;;;;;5057505;28;20251;-64
2022/12/17 14:46:25;;;;;;;40.83;22.50;;;-3.90;99.90;;;;;;5068900;28;20280;-65
2022/12/17 14:49:01;;;;;;;46.85;23.83;;;-4.00;99.90;;;;;;5074842;28;20196;-65
2022/12/17 14:51:32;;;;;;;50.20;22.92;;;-4.00;99.90;;;;;;5077725;28;20689;-64
2022/12/17 14:54:29;;;;;;;49.42;25.70;;;-4.10;99.90;;;;;;5056646;28;20209;-64
2022/12/17 14:57:00;;;;;;;49.63;24.48;;;-4.20;99.90;;;;;;5053020;28;20280;-64
2022/12/17 14:59:32;;;;;;;52.70;25.40;;;-4.20;99.90;;;;;;5063291;28;20318;-64
2022/12/17 15:02:04;;;;;;;55.08;26.77;;;-4.20;99.90;;;;;;5056552;28;20280;-65
2022/12/17 15:04:32;;;;;;;67.05;29.52;;;-4.20;99.90;;;;;;5055290;28;20272;-64
2022/12/17 15:07:00;;;;;;;54.63;27.58;;;-4.20;99.90;;;;;;5064127;28;20278;-64
2022/12/17 15:09:28;;;;;;;64.90;29.75;;;-4.20;99.90;;;;;;5076104;28;20199;-64
2022/12/17 15:11:58;;;;;;;62.67;27.50;;;-4.20;99.90;;;;;;5080045;28;20291;-64
2022/12/17 15:14:25;;;;;;;59.83;29.13;;;-4.20;99.90;;;;;;5063503;28;20228;-65
2022/12/17 15:16:54;;;;;;;64.82;30.08;;;-4.20;99.90;;;;;;5060952;28;20678;-65
2022/12/17 15:19:22;;;;;;;60.85;26.10;;;-4.20;99.90;;;;;;5061084;28;20287;-65
2022/12/17 15:21:50;;;;;;;57.72;26.85;;;-4.20;99.90;;;;;;5060546;28;20307;-64
2022/12/17 15:24:20;;;;;;;71.03;28.92;;;-4.20;99.90;;;;;;5059579;28;20602;-64
2022/12/17 15:26:49;;;;;;;52.90;24.77;;;-4.20;99.90;;;;;;5060824;28;20272;-64
2022/12/17 15:29:18;;;;;;;71.15;29.70;;;-4.30;99.90;;;;;;5058748;28;20212;-64
2022/12/17 15:31:46;;;;;;;67.25;28.70;;;-4.40;99.90;;;;;;5059505;28;20283;-64
2022/12/17 15:34:14;;;;;;;74.03;26.48;;;-4.50;99.90;;;;;;5059284;28;20228;-64
2022/12/17 15:36:42;;;;;;;70.55;28.25;;;-4.50;99.90;;;;;;5059689;28;20204;-63
2022/12/17 15:39:11;;;;;;;66.07;28.70;;;-4.50;99.90;;;;;;5058818;28;20207;-64
2022/12/17 15:44:26;;;;;;;62.38;26.63;;;-4.70;99.90;;;;;;5076386;28;20207;-63
2022/12/17 15:46:56;;;;;;;73.47;28.92;;;-4.70;99.90;;;;;;5062406;28;20204;-63
2022/12/17 15:49:24;;;;;;;64.50;29.20;;;-4.70;99.90;;;;;;5056800;28;20627;-63
2022/12/17 15:51:52;;;;;;;71.07;30.92;;;-4.80;99.90;;;;;;5076200;28;20695;-63
2022/12/17 15:54:20;;;;;;;68.05;27.58;;;-4.80;99.90;;;;;;5076588;28;20204;-63
2022/12/17 15:56:53;;;;;;;68.40;29.42;;;-4.90;99.90;;;;;;5076093;28;20212;-63
2022/12/17 15:59:21;;;;;;;61.90;24.40;;;-4.90;99.90;;;;;;5065370;28;20262;-63
2022/12/17 16:01:50;;;;;;;65.75;27.70;;;-4.90;99.90;;;;;;5054494;28;20674;-64
2022/12/17 16:04:18;;;;;;;78.47;28.75;;;-4.90;99.90;;;;;;5070183;28;20218;-63
2022/12/17 16:06:46;;;;;;;64.75;25.85;;;-5.00;99.90;;;;;;5074738;28;20207;-63
2022/12/17 16:09:14;;;;;;;63.58;26.23;;;-5.00;99.90;;;;;;5056266;28;20212;-63
2022/12/17 16:11:42;;;;;;;56.70;25.98;;;-5.00;99.90;;;;;;5055370;28;20556;-63
2022/12/17 16:14:10;;;;;;;65.88;29.35;;;-5.10;99.90;;;;;;5055558;28;20209;-63
2022/12/17 16:16:38;;;;;;;66.03;26.70;;;-5.10;99.90;;;;;;5055264;28;20204;-63
2022/12/17 16:19:08;;;;;;;72.63;30.23;;;-5.10;99.90;;;;;;5054417;28;20215;-66
2022/12/17 16:21:36;;;;;;;66.60;27.17;;;-5.20;99.90;;;;;;5054032;28;20353;-64
2022/12/17 16:24:05;;;;;;;70.90;27.70;;;-5.20;99.90;;;;;;5055628;28;20599;-64
2022/12/17 16:26:34;;;;;;;68.43;28.92;;;-5.20;99.90;;;;;;5055051;28;20212;-64
2022/12/17 16:29:02;;;;;;;71.65;28.02;;;-5.20;99.90;;;;;;5054976;28;20205;-64
2022/12/17 16:31:30;;;;;;;60.85;26.65;;;-5.20;99.90;;;;;;5055211;28;20204;-64
2022/12/17 16:33:58;;;;;;;67.40;27.58;;;-5.30;99.90;;;;;;5055359;28;20205;-66
2022/12/17 16:36:27;;;;;;;72.15;26.02;;;-5.20;99.90;;;;;;5055421;28;20239;-66
2022/12/17 16:38:55;;;;;;;64.47;27.23;;;-5.20;99.90;;;;;;5063340;28;20281;-65
2022/12/17 16:41:23;;;;;;;72.97;25.00;;;-5.10;99.90;;;;;;5067353;28;20223;-66
2022/12/17 16:43:51;;;;;;;58.97;27.75;;;-5.10;99.90;;;;;;5059573;28;20216;-67
2022/12/17 16:46:25;;;;;;;81.82;29.60;;;-5.10;99.90;;;;;;5067079;28;20208;-66
2022/12/17 16:48:54;;;;;;;76.30;31.45;;;-5.30;99.90;;;;;;5075259;28;20262;-66
2022/12/17 16:51:24;;;;;;;60.92;25.80;;;-5.30;99.90;;;;;;5069183;28;20678;-66
2022/12/17 16:53:54;;;;;;;67.47;26.83;;;-5.30;99.90;;;;;;5054620;28;20242;-65
2022/12/17 16:56:24;;;;;;;60.97;26.15;;;-5.30;99.90;;;;;;5070911;28;20224;-65
2022/12/17 16:58:52;;;;;;;74.78;27.33;;;-5.40;99.90;;;;;;5064780;28;20231;-65
2022/12/17 17:01:21;;;;;;;80.30;31.23;;;-5.40;99.90;;;;;;5068106;28;20211;-65
2022/12/17 17:03:49;;;;;;;75.65;30.67;;;-5.30;99.90;;;;;;5067152;28;20283;-64
2022/12/17 17:06:18;;;;;;;72.13;28.05;;;-5.30;99.90;;;;;;5056547;28;20193;-65
2022/12/17 17:08:47;;;;;;;71.72;27.08;;;-5.30;99.90;;;;;;5057126;28;20279;-65
2022/12/17 17:11:20;;;;;;;67.10;28.38;;;-5.30;99.90;;;;;;5064467;28;20283;-64
2022/12/17 17:13:49;;;;;;;69.97;29.10;;;-5.20;99.90;;;;;;5077351;28;20271;-64
2022/12/17 17:16:18;;;;;;;94.03;28.38;;;-5.20;99.90;;;;;;5077102;28;20651;-64
2022/12/17 17:18:47;;;;;;;75.95;29.13;;;-5.20;99.90;;;;;;5076999;28;20632;-65
2022/12/17 17:21:22;;;;;;;73.15;28.65;;;-5.20;99.90;;;;;;5074998;28;20204;-65
2022/12/17 17:23:52;;;;;;;78.15;29.42;;;-5.40;99.90;;;;;;5069677;28;20437;-65
2022/12/17 17:26:21;;;;;;;78.22;30.98;;;-5.40;99.90;;;;;;5061738;28;20196;-65
2022/12/17 17:28:50;;;;;;;74.13;27.98;;;-5.40;99.90;;;;;;5067065;28;20196;-65
2022/12/17 17:31:19;;;;;;;78.38;29.15;;;-5.40;99.90;;;;;;5056737;28;20211;-65
2022/12/17 17:33:48;;;;;;;90.50;32.33;;;-5.40;99.90;;;;;;5055963;28;20730;-65
2022/12/17 17:36:18;;;;;;;81.43;31.30;;;-5.40;99.90;;;;;;5058348;28;20236;-66
2022/12/17 17:38:47;;;;;;;81.90;30.45;;;-5.40;99.90;;;;;;5056916;28;20299;-66
2022/12/17 17:41:18;;;;;;;74.90;30.63;;;-5.30;99.90;;;;;;5059375;28;20703;-65
2022/12/17 17:43:47;;;;;;;77.40;30.10;;;-5.30;99.90;;;;;;5063615;28;20275;-65
2022/12/17 17:46:17;;;;;;;97.85;30.33;;;-5.20;99.90;;;;;;5074693;28;20200;-65
2022/12/17 17:48:47;;;;;;;87.00;32.40;;;-5.30;99.90;;;;;;5059730;28;20271;-65
2022/12/17 17:51:17;;;;;;;92.75;33.63;;;-5.30;99.90;;;;;;5059901;28;20201;-65
2022/12/17 17:53:46;;;;;;;88.18;31.42;;;-5.30;99.90;;;;;;5066916;28;20640;-65
2022/12/17 17:56:16;;;;;;;87.10;29.77;;;-5.30;99.90;;;;;;5066733;28;20221;-65
2022/12/17 17:58:48;;;;;;;89.55;31.92;;;-5.20;99.90;;;;;;5067656;28;20235;-66
2022/12/17 18:01:18;;;;;;;92.20;32.20;;;-5.20;99.90;;;;;;5063044;28;20245;-65
2022/12/17 18:03:47;;;;;;;84.57;33.47;;;-5.20;99.90;;;;;;5065705;28;20196;-64
2022/12/17 18:06:15;;;;;;;80.15;31.48;;;-5.20;99.90;;;;;;5069740;28;20212;-65
2022/12/17 18:08:44;;;;;;;98.95;32.75;;;-5.30;99.90;;;;;;5068213;28;20211;-65
2022/12/17 18:11:14;;;;;;;77.65;32.70;;;-5.30;99.90;;;;;;5067722;28;20200;-64
2022/12/17 18:13:54;;;;;;;79.40;32.97;;;-5.30;99.90;;;;;;5060508;28;20184;-65
2022/12/17 18:16:26;;;;;;;76.10;30.25;;;-5.30;99.90;;;;;;5065936;28;20199;-65
2022/12/17 18:18:56;;;;;;;96.22;30.73;;;-5.30;99.90;;;;;;5066614;28;20557;-65
2022/12/17 18:21:26;;;;;;;89.13;32.22;;;-5.30;99.90;;;;;;5059499;28;20210;-65
2022/12/17 18:23:55;;;;;;;87.68;30.15;;;-5.40;99.90;;;;;;5064900;28;20223;-65
2022/12/17 18:26:24;;;;;;;88.40;30.88;;;-5.30;99.90;;;;;;5072981;28;20588;-64
2022/12/17 18:28:52;;;;;;;70.78;28.73;;;-5.40;99.90;;;;;;5065559;28;20192;-64
2022/12/17 18:31:22;;;;;;;91.07;33.72;;;-5.50;99.90;;;;;;5060053;28;20208;-64
2022/12/17 18:33:54;;;;;;;84.00;33.03;;;-5.50;99.90;;;;;;5060525;28;20211;-64
2022/12/17 18:36:23;;;;;;;99.70;32.53;;;-5.40;99.90;;;;;;5060988;28;20208;-64
2022/12/17 18:38:55;;;;;;;105.55;34.53;;;-5.40;99.90;;;;;;5064964;28;20278;-65
2022/12/17 18:44:10;;;;;;;90.13;32.95;;;-5.40;99.90;;;;;;5061660;28;20197;-66
2022/12/17 18:46:38;;;;;;;90.28;35.17;;;-5.40;99.90;;;;;;5058651;28;20601;-65
2022/12/17 18:49:10;;;;;;;94.65;33.53;;;-5.40;99.90;;;;;;5065314;28;20208;-65
2022/12/17 18:51:40;;;;;;;90.35;33.78;;;-5.40;99.90;;;;;;5074004;28;20279;-66
2022/12/17 18:54:12;;;;;;;87.28;33.63;;;-5.40;99.90;;;;;;5076235;28;20282;-65
2022/12/17 18:56:40;;;;;;;82.50;31.23;;;-5.30;99.90;;;;;;5066254;28;20341;-65
2022/12/17 18:59:08;;;;;;;72.53;29.25;;;-5.30;99.90;;;;;;5046151;28;20516;-65
2022/12/17 19:01:37;;;;;;;78.18;30.63;;;-5.30;99.90;;;;;;5068194;28;20196;-66
2022/12/17 19:04:08;;;;;;;84.70;29.27;;;-5.30;99.90;;;;;;5067710;28;20302;-66
2022/12/17 19:06:38;;;;;;;76.82;26.52;;;-5.30;99.90;;;;;;5070057;28;20222;-66
2022/12/17 19:09:07;;;;;;;79.93;29.27;;;-5.40;99.90;;;;;;5071528;28;20308;-65
2022/12/17 19:11:36;;;;;;;72.88;31.15;;;-5.40;99.90;;;;;;5075787;28;20271;-66
2022/12/17 19:14:04;;;;;;;81.05;30.77;;;-5.50;99.90;;;;;;5078736;28;20327;-66
2022/12/17 19:16:32;;;;;;;74.40;28.88;;;-5.50;99.90;;;;;;5071813;28;20272;-66
2022/12/17 19:19:02;;;;;;;79.80;29.67;;;-5.40;99.90;;;;;;5074565;28;20283;-65
2022/12/17 19:21:33;;;;;;;90.07;30.15;;;-5.40;99.90;;;;;;5080708;28;20295;-65
2022/12/17 19:24:02;;;;;;;76.97;32.22;;;-5.40;99.90;;;;;;5076805;28;20256;-65
2022/12/17 19:26:31;;;;;;;88.40;30.10;;;-5.40;99.90;;;;;;5073876;28;20675;-65
2022/12/17 19:29:00;;;;;;;77.60;30.60;;;-5.40;99.90;;;;;;5081579;28;20322;-65
2022/12/17 19:31:30;;;;;;;76.38;29.55;;;-5.50;99.90;;;;;;5062344;28;20781;-65
2022/12/17 19:34:00;;;;;;;82.30;29.35;;;-5.40;99.90;;;;;;5068038;28;20287;-65
2022/12/17 19:36:32;;;;;;;66.88;26.83;;;-5.40;99.90;;;;;;5064259;28;20798;-65
2022/12/17 19:39:04;;;;;;;76.60;27.10;;;-5.50;99.90;;;;;;5061094;28;20189;-66
2022/12/17 19:41:32;;;;;;;84.30;31.92;;;-5.40;99.90;;;;;;5072364;28;20275;-65
2022/12/17 19:44:02;;;;;;;86.03;31.30;;;-5.40;99.90;;;;;;5069249;28;20650;-65
2022/12/17 19:46:31;;;;;;;70.95;27.42;;;-5.40;99.90;;;;;;5069740;28;20271;-66
2022/12/17 19:48:59;;;;;;;70.40;29.05;;;-5.40;99.90;;;;;;5071162;28;20205;-65
2022/12/17 19:51:29;;;;;;;73.35;30.00;;;-5.40;99.90;;;;;;5075517;28;20287;-66
2022/12/17 19:53:59;;;;;;;79.20;30.63;;;-5.50;99.90;;;;;;5078659;28;20275;-66
2022/12/17 19:56:29;;;;;;;76.78;28.15;;;-5.50;99.90;;;;;;5071070;28;20276;-66
2022/12/17 19:59:00;;;;;;;79.45;29.00;;;-5.50;99.90;;;;;;5076911;28;20306;-66
2022/12/17 20:01:30;;;;;;;66.60;28.70;;;-5.60;99.90;;;;;;5083261;28;20667;-65
2022/12/17 20:03:59;;;;;;;80.60;27.45;;;-5.60;99.90;;;;;;5081866;28;20726;-65
2022/12/17 20:06:29;;;;;;;73.40;27.10;;;-5.60;99.90;;;;;;5063983;28;20323;-65
2022/12/17 20:09:00;;;;;;;80.38;29.38;;;-5.60;99.90;;;;;;5076435;28;20718;-65
2022/12/17 20:11:34;;;;;;;69.13;27.58;;;-5.60;99.90;;;;;;5074879;28;20284;-65
2022/12/17 20:14:05;;;;;;;67.80;26.42;;;-5.60;99.90;;;;;;5080559;28;20274;-65
2022/12/17 20:16:36;;;;;;;72.28;27.05;;;-5.60;99.90;;;;;;5082093;28;20307;-65
2022/12/17 20:19:05;;;;;;;77.70;26.60;;;-5.60;99.90;;;;;;5075271;28;20699;-65
2022/12/17 20:21:33;;;;;;;62.22;25.58;;;-5.60;99.90;;;;;;5073556;28;20283;-65
2022/12/17 20:24:03;;;;;;;85.10;30.90;;;-5.70;99.90;;;;;;5073937;28;20278;-65
2022/12/17 20:26:31;;;;;;;78.53;28.38;;;-5.70;99.90;;;;;;5079974;28;20275;-66
2022/12/17 20:29:00;;;;;;;75.28;29.30;;;-5.70;99.90;;;;;;5082691;28;20346;-64
2022/12/17 20:31:28;;;;;;;61.05;27.60;;;-5.80;99.90;;;;;;5076095;28;20260;-65
2022/12/17 20:33:59;;;;;;;67.57;25.55;;;-5.70;99.90;;;;;;5075574;28;20269;-65
2022/12/17 20:36:27;;;;;;;68.55;29.33;;;-5.70;99.90;;;;;;5079553;28;20271;-65
2022/12/17 20:38:56;;;;;;;80.82;27.05;;;-5.80;99.90;;;;;;5075368;28;20279;-65
2022/12/17 20:41:27;;;;;;;69.32;28.52;;;-5.90;99.90;;;;;;5066266;28;20275;-66
2022/12/17 20:43:57;;;;;;;72.05;28.05;;;-5.80;99.90;;;;;;5075454;28;20314;-65
2022/12/17 20:46:25;;;;;;;75.70;28.65;;;-5.90;99.90;;;;;;5083174;28;20283;-65
2022/12/17 20:48:53;;;;;;;79.10;29.73;;;-5.90;99.90;;;;;;5073757;28;20256;-65
2022/12/17 20:51:24;;;;;;;77.63;29.75;;;-5.90;99.90;;;;;;5082328;28;20259;-66
2022/12/17 20:53:52;;;;;;;79.15;30.80;;;-5.90;99.90;;;;;;5079172;28;20264;-65
2022/12/17 20:56:23;;;;;;;72.47;28.70;;;-6.00;99.90;;;;;;5067289;28;20282;-66
2022/12/17 20:58:55;;;;;;;72.25;27.83;;;-6.00;99.90;;;;;;5062105;28;20232;-65
2022/12/17 21:01:25;;;;;;;89.70;29.58;;;-6.10;99.90;;;;;;5064158;28;20282;-65
2022/12/17 21:03:54;;;;;;;65.00;26.65;;;-6.10;99.90;;;;;;5061462;28;20275;-66
2022/12/17 21:06:24;;;;;;;60.42;26.80;;;-6.20;99.90;;;;;;5059296;28;20280;-66
2022/12/17 21:08:54;;;;;;;69.40;27.23;;;-6.20;99.90;;;;;;5059836;28;20280;-66
2022/12/17 21:11:24;;;;;;;68.00;23.77;;;-6.20;99.90;;;;;;5068952;28;20207;-66
2022/12/17 21:13:54;;;;;;;65.43;25.80;;;-6.20;99.90;;;;;;5067572;28;20195;-66
2022/12/17 21:16:26;;;;;;;63.28;25.00;;;-6.20;99.90;;;;;;5070105;28;20200;-66
2022/12/17 21:18:59;;;;;;;64.25;28.25;;;-6.30;99.90;;;;;;5061092;28;20682;-65
2022/12/17 21:21:29;;;;;;;69.30;29.77;;;-6.20;99.90;;;;;;5072222;28;20199;-65
2022/12/17 21:23:59;;;;;;;61.85;23.80;;;-6.20;99.90;;;;;;5062071;28;20278;-67
2022/12/17 21:26:30;;;;;;;67.93;25.00;;;-6.20;99.90;;;;;;5053330;28;20554;-66
2022/12/17 21:29:00;;;;;;;77.78;26.30;;;-6.20;99.90;;;;;;5068041;28;20193;-65
2022/12/17 21:31:30;;;;;;;72.60;24.02;;;-6.20;99.90;;;;;;5073490;28;20204;-65
2022/12/17 21:33:59;;;;;;;60.00;24.63;;;-6.30;99.90;;;;;;5074158;28;20210;-65
2022/12/17 21:36:28;;;;;;;64.80;27.88;;;-6.30;99.90;;;;;;5064620;28;20207;-65
2022/12/17 21:38:57;;;;;;;75.45;27.30;;;-6.30;99.90;;;;;;5056661;28;20220;-65
2022/12/17 21:41:27;;;;;;;47.20;21.15;;;-6.40;99.90;;;;;;5062302;28;20207;-65
2022/12/17 21:43:56;;;;;;;62.88;26.08;;;-6.40;99.90;;;;;;5061905;28;20523;-65
2022/12/17 21:46:27;;;;;;;75.05;25.95;;;-6.40;99.90;;;;;;5072804;28;20245;-65
2022/12/17 21:48:56;;;;;;;64.00;26.88;;;-6.40;99.90;;;;;;5065706;28;20192;-66
2022/12/17 21:51:24;;;;;;;73.60;27.92;;;-6.40;99.90;;;;;;5071496;28;20231;-67
2022/12/17 21:53:53;;;;;;;56.60;23.58;;;-6.40;99.90;;;;;;5068571;28;20259;-65
2022/12/17 21:56:21;;;;;;;55.58;23.65;;;-6.40;99.90;;;;;;5063838;28;20203;-65
2022/12/17 21:58:50;;;;;;;70.35;23.65;;;-6.40;99.90;;;;;;5068102;28;20232;-66
2022/12/17 22:01:21;;;;;;;54.20;25.20;;;-6.40;99.90;;;;;;5070578;28;20204;-67
2022/12/17 22:03:51;;;;;;;61.47;26.42;;;-6.40;99.90;;;;;;5066053;28;20203;-66
2022/12/17 22:06:21;;;;;;;59.80;23.10;;;-6.40;99.90;;;;;;5065749;28;20544;-66
2022/12/17 22:08:49;;;;;;;63.45;23.05;;;-6.40;99.90;;;;;;5062301;28;20199;-65
2022/12/17 22:11:19;;;;;;;74.57;24.95;;;-6.40;99.90;;;;;;5072476;28;20241;-65
2022/12/17 22:14:04;;;;;;;65.07;23.20;;;-6.40;99.90;;;;;;5069594;28;20289;-66
2022/12/17 22:16:35;;;;;;;60.28;22.98;;;-6.40;99.90;;;;;;5065712;28;20200;-66
2022/12/17 22:19:05;;;;;;;62.08;23.55;;;-6.40;99.90;;;;;;5072832;28;20218;-66
2022/12/17 22:21:34;;;;;;;73.18;25.63;;;-6.40;99.90;;;;;;5055339;28;20196;-64
2022/12/17 22:24:03;;;;;;;57.17;21.23;;;-6.30;99.90;;;;;;5066084;28;20200;-66
2022/12/17 22:26:32;;;;;;;59.30;23.48;;;-6.30;99.90;;;;;;5073049;28;20650;-66
2022/12/17 22:29:01;;;;;;;60.33;24.13;;;-6.30;99.90;;;;;;5051781;28;20648;-66
2022/12/17 22:34:16;;;;;;;63.30;23.25;;;-6.40;99.90;;;;;;5069674;28;20685;-65
2022/12/17 22:36:44;;;;;;;58.22;22.75;;;-6.50;99.90;;;;;;5073142;28;20207;-66
2022/12/17 22:39:14;;;;;;;59.92;23.23;;;-6.50;99.90;;;;;;5061592;28;20215;-65
2022/12/17 22:44:27;;;;;;;70.05;28.98;;;-6.50;99.90;;;;;;5071377;28;20200;-65
2022/12/17 22:46:55;;;;;;;67.18;24.60;;;-6.60;99.90;;;;;;5072609;28;20204;-65
2022/12/17 22:49:25;;;;;;;58.25;24.08;;;-6.60;99.90;;;;;;5071161;28;20554;-65
2022/12/17 22:51:53;;;;;;;51.38;20.50;;;-6.60;99.90;;;;;;5072607;28;20685;-66
2022/12/17 22:54:21;;;;;;;59.38;20.35;;;-6.60;99.90;;;;;;5055855;28;20200;-65
2022/12/17 22:56:49;;;;;;;53.28;20.75;;;-6.60;99.90;;;;;;5058672;28;20219;-64
2022/12/17 22:59:18;;;;;;;73.35;25.23;;;-6.60;99.90;;;;;;5056219;28;20228;-66
2022/12/17 23:01:46;;;;;;;65.90;21.95;;;-6.50;99.90;;;;;;5062566;28;20207;-66
2022/12/17 23:04:15;;;;;;;51.67;21.88;;;-6.60;99.90;;;;;;5060114;28;20260;-65
2022/12/17 23:06:45;;;;;;;55.78;21.63;;;-6.50;99.90;;;;;;5060118;28;20605;-67
2022/12/17 23:09:19;;;;;;;58.30;22.85;;;-6.60;99.90;;;;;;5070947;28;20184;-67
2022/12/17 23:11:48;;;;;;;49.70;21.02;;;-6.60;99.90;;;;;;5063609;28;20199;-65
2022/12/17 23:14:17;;;;;;;63.58;22.15;;;-6.60;99.90;;;;;;5061321;28;20248;-66
2022/12/17 23:16:45;;;;;;;55.78;21.13;;;-6.50;99.90;;;;;;5072497;28;20216;-65
2022/12/17 23:19:14;;;;;;;60.15;21.88;;;-6.50;99.90;;;;;;5059196;28;20754;-65
2022/12/17 23:21:42;;;;;;;56.95;21.80;;;-6.50;99.90;;;;;;5052545;28;20205;-66
2022/12/17 23:24:11;;;;;;;56.38;20.40;;;-6.40;99.90;;;;;;5052581;28;20201;-65
2022/12/17 23:26:39;;;;;;;65.18;22.95;;;-6.50;99.90;;;;;;5052583;28;20215;-65
2022/12/17 23:29:09;;;;;;;69.20;22.70;;;-6.60;99.90;;;;;;5052634;28;20205;-66
2022/12/17 23:31:39;;;;;;;56.42;23.10;;;-6.60;99.90;;;;;;5069347;28;20265;-65
2022/12/17 23:34:07;;;;;;;53.97;20.67;;;-6.60;99.90;;;;;;5076427;28;20204;-66
2022/12/17 23:36:37;;;;;;;56.05;21.80;;;-6.60;99.90;;;;;;5076197;28;20207;-66
2022/12/17 23:39:05;;;;;;;53.58;22.13;;;-6.70;99.90;;;;;;5076030;28;20224;-65
2022/12/17 23:41:34;;;;;;;60.55;24.35;;;-6.70;99.90;;;;;;5076249;28;20215;-65
2022/12/17 23:44:02;;;;;;;58.33;24.42;;;-6.70;99.90;;;;;;5062579;28;20714;-66
2022/12/17 23:46:31;;;;;;;73.50;24.30;;;-6.70;99.90;;;;;;5067668;28;20199;-66
2022/12/17 23:48:59;;;;;;;66.30;25.08;;;-6.60;99.90;;;;;;5065117;28;20198;-66
2022/12/17 23:51:27;;;;;;;64.60;22.15;;;-6.60;99.90;;;;;;5074786;28;20204;-67
2022/12/17 23:53:55;;;;;;;62.55;24.48;;;-6.60;99.90;;;;;;5075449;28;20204;-65
2022/12/17 23:56:26;;;;;;;57.95;21.80;;;-6.60;99.90;;;;;;5071073;28;20204;-65
2022/12/17 23:58:57;;;;;;;58.10;23.98;;;-6.60;99.90;;;;;;5057103;28;20239;-66
